createdAt,value
2017-11-18T00:00:00.637Z,2.10
2017-11-18T00:02:28.445Z,2.00
2017-11-18T00:04:56.328Z,1.90
2017-11-18T00:07:24.076Z,2.00
2017-11-18T00:09:51.897Z,2.00
2017-11-18T00:12:19.664Z,2.10
2017-11-18T00:14:47.424Z,2.20
2017-11-18T00:17:15.244Z,2.30
2017-11-18T00:19:43.038Z,2.40
2017-11-18T00:22:10.795Z,2.50
2017-11-18T00:24:38.599Z,2.50
2017-11-18T00:27:07.152Z,2.60
2017-11-18T00:29:34.906Z,2.60
2017-11-18T00:32:02.704Z,2.70
2017-11-18T00:34:31.267Z,2.80
2017-11-18T00:36:59.015Z,2.70
2017-11-18T00:39:26.870Z,2.80
2017-11-18T00:41:54.620Z,2.80
2017-11-18T00:44:22.371Z,2.70
2017-11-18T00:46:50.176Z,2.60
2017-11-18T00:49:17.933Z,2.50
2017-11-18T00:51:45.675Z,2.50
2017-11-18T00:54:13.481Z,2.50
2017-11-18T00:56:41.997Z,2.30
2017-11-18T00:59:09.772Z,2.30
2017-11-18T01:01:37.591Z,2.10
2017-11-18T01:04:05.350Z,2.00
2017-11-18T01:06:33.861Z,1.90
2017-11-18T01:09:01.664Z,1.90
2017-11-18T01:11:29.416Z,1.90
2017-11-18T01:13:57.163Z,1.80
2017-11-18T01:16:25.140Z,1.80
2017-11-18T01:18:53.009Z,1.80
2017-11-18T01:21:20.872Z,1.80
2017-11-18T01:23:48.732Z,1.80
2017-11-18T01:26:16.594Z,1.80
2017-11-18T01:28:44.460Z,1.90
2017-11-18T01:31:12.275Z,1.80
2017-11-18T01:33:40.026Z,1.70
2017-11-18T01:36:08.666Z,1.60
2017-11-18T01:38:36.467Z,1.60
2017-11-18T01:41:04.999Z,1.40
2017-11-18T01:43:32.753Z,1.30
2017-11-18T01:46:00.555Z,1.30
2017-11-18T01:48:28.395Z,1.20
2017-11-18T01:50:56.259Z,1.10
2017-11-18T01:53:24.089Z,1.10
2017-11-18T01:55:51.836Z,1.10
2017-11-18T01:58:19.676Z,1.10
2017-11-18T02:00:48.329Z,1.30
2017-11-18T02:03:16.193Z,1.20
2017-11-18T02:05:43.982Z,1.30
2017-11-18T02:08:12.677Z,1.50
2017-11-18T02:10:40.502Z,1.50
2017-11-18T02:13:08.366Z,1.60
2017-11-18T02:15:36.187Z,1.70
2017-11-18T02:18:03.927Z,1.70
2017-11-18T02:20:32.452Z,1.60
2017-11-18T02:23:00.279Z,1.60
2017-11-18T02:25:28.042Z,1.70
2017-11-18T02:27:55.821Z,1.70
2017-11-18T02:30:23.696Z,1.60
2017-11-18T02:32:51.454Z,1.60
2017-11-18T02:35:19.231Z,1.70
2017-11-18T02:37:47.064Z,1.70
2017-11-18T02:40:14.830Z,1.70
2017-11-18T02:42:42.593Z,1.60
2017-11-18T02:45:10.413Z,1.50
2017-11-18T02:47:38.183Z,1.40
2017-11-18T02:50:06.707Z,1.30
2017-11-18T02:52:34.911Z,1.30
2017-11-18T02:55:02.671Z,1.30
2017-11-18T02:57:30.429Z,1.20
2017-11-18T02:59:59.200Z,1.20
2017-11-18T03:02:27.079Z,1.20
2017-11-18T03:04:54.824Z,1.30
2017-11-18T03:07:22.652Z,1.40
2017-11-18T03:09:50.405Z,1.50
2017-11-18T03:12:18.924Z,1.60
2017-11-18T03:14:46.747Z,1.60
2017-11-18T03:17:15.278Z,1.60
2017-11-18T03:19:43.026Z,1.60
2017-11-18T03:22:10.831Z,1.50
2017-11-18T03:24:38.677Z,1.40
2017-11-18T03:27:06.540Z,1.30
2017-11-18T03:29:34.365Z,1.30
2017-11-18T03:32:02.125Z,1.30
2017-11-18T03:34:29.927Z,1.20
2017-11-18T03:36:57.728Z,1.10
2017-11-18T03:39:26.270Z,1.10
2017-11-18T03:41:54.133Z,1.10
2017-11-18T03:44:21.996Z,1.10
2017-11-18T03:46:49.765Z,1.10
2017-11-18T03:49:17.632Z,1.20
2017-11-18T03:51:45.487Z,1.30
2017-11-18T03:54:13.238Z,1.40
2017-11-18T03:56:41.120Z,1.50
2017-11-18T03:59:08.948Z,1.60
2017-11-18T04:01:36.728Z,1.60
2017-11-18T04:04:04.603Z,1.60
2017-11-18T04:06:32.467Z,1.50
2017-11-18T04:09:00.229Z,1.40
2017-11-18T04:11:27.976Z,1.30
2017-11-18T04:13:55.788Z,1.30
2017-11-18T04:16:24.331Z,1.10
2017-11-18T04:18:52.085Z,1.20
2017-11-18T04:21:19.897Z,1.10
2017-11-18T04:23:48.422Z,1.10
2017-11-18T04:26:17.016Z,1.10
2017-11-18T04:28:44.880Z,1.10
2017-11-18T04:31:12.628Z,1.20
2017-11-18T04:33:40.507Z,1.30
2017-11-18T04:36:08.321Z,1.30
2017-11-18T04:38:36.131Z,1.30
2017-11-18T04:41:03.895Z,1.30
2017-11-18T04:43:31.757Z,1.20
2017-11-18T04:45:59.503Z,1.10
2017-11-18T04:48:27.271Z,1.00
2017-11-18T04:50:55.081Z,0.80
2017-11-18T04:53:22.838Z,0.70
2017-11-18T04:55:51.486Z,0.60
2017-11-18T04:58:19.295Z,0.50
2017-11-18T05:00:47.113Z,0.50
2017-11-18T05:03:14.892Z,0.40
2017-11-18T05:05:42.733Z,0.40
2017-11-18T05:08:10.492Z,0.50
2017-11-18T05:10:38.247Z,0.60
2017-11-18T05:13:06.065Z,0.70
2017-11-18T05:15:34.586Z,0.80
2017-11-18T05:18:02.336Z,0.80
2017-11-18T05:20:30.172Z,0.90
2017-11-18T05:22:57.991Z,0.90
2017-11-18T05:25:25.755Z,0.90
2017-11-18T05:27:53.563Z,0.90
2017-11-18T05:30:21.328Z,0.90
2017-11-18T05:32:49.085Z,0.80
2017-11-18T05:35:17.005Z,0.80
2017-11-18T05:37:44.868Z,0.70
2017-11-18T05:40:12.732Z,0.70
2017-11-18T05:42:40.547Z,0.60
2017-11-18T05:45:08.357Z,0.60
2017-11-18T05:47:36.195Z,0.50
2017-11-18T05:50:04.007Z,0.50
2017-11-18T05:52:31.747Z,0.40
2017-11-18T05:54:59.521Z,0.30
2017-11-18T05:57:27.324Z,0.20
2017-11-18T05:59:55.091Z,0.20
2017-11-18T06:02:22.840Z,0.20
2017-11-18T06:04:50.763Z,0.20
2017-11-18T06:07:18.621Z,0.20
2017-11-18T06:09:46.489Z,0.10
2017-11-18T06:12:14.350Z,0.10
2017-11-18T06:14:42.103Z,0.10
2017-11-18T06:17:10.620Z,0.10
2017-11-18T06:19:39.274Z,0.10
2017-11-18T06:22:07.041Z,0.10
2017-11-18T06:24:34.796Z,0.20
2017-11-18T06:27:02.604Z,0.20
2017-11-18T06:29:31.166Z,0.30
2017-11-18T06:31:59.695Z,0.30
2017-11-18T06:34:27.504Z,0.40
2017-11-18T06:36:55.258Z,0.40
2017-11-18T06:39:23.009Z,0.40
2017-11-18T06:41:51.483Z,0.50
2017-11-18T06:44:19.348Z,0.60
2017-11-18T06:46:47.213Z,0.60
2017-11-18T06:49:15.076Z,0.80
2017-11-18T06:51:42.821Z,0.90
2017-11-18T06:54:10.572Z,1.00
2017-11-18T06:56:38.380Z,1.10
2017-11-18T06:59:06.147Z,1.20
2017-11-18T07:01:33.896Z,1.30
2017-11-18T07:04:01.698Z,1.40
2017-11-18T07:06:29.452Z,1.50
2017-11-18T07:08:57.270Z,1.60
2017-11-18T07:11:25.095Z,1.80
2017-11-18T07:13:52.850Z,1.80
2017-11-18T07:16:20.604Z,2.00
2017-11-18T07:18:48.522Z,2.10
2017-11-18T07:21:16.271Z,2.30
2017-11-18T07:23:44.147Z,3.20
2017-11-18T07:26:11.956Z,5.70
2017-11-18T07:28:39.704Z,8.70
2017-11-18T07:31:08.233Z,12.50
2017-11-18T07:33:36.532Z,12.40
2017-11-18T07:36:04.295Z,13.40
2017-11-18T07:38:32.151Z,14.10
2017-11-18T07:41:00.625Z,13.20
2017-11-18T07:43:28.379Z,11.50
2017-11-18T07:45:56.164Z,9.50
2017-11-18T07:48:26.940Z,7.70
2017-11-18T07:50:54.951Z,6.70
2017-11-18T07:53:22.736Z,6.00
2017-11-18T07:55:50.544Z,5.60
2017-11-18T07:58:18.481Z,5.40
2017-11-18T08:00:46.992Z,5.00
2017-11-18T08:03:14.791Z,4.90
2017-11-18T08:05:42.536Z,4.80
2017-11-18T08:08:10.871Z,4.80
2017-11-18T08:10:38.676Z,4.80
2017-11-18T08:13:06.424Z,4.70
2017-11-18T08:15:34.179Z,4.60
2017-11-18T08:18:02.023Z,4.70
2017-11-18T08:20:29.836Z,4.50
2017-11-18T08:22:57.587Z,4.60
2017-11-18T08:25:25.399Z,4.60
2017-11-18T08:27:53.924Z,4.60
2017-11-18T08:30:21.677Z,4.60
2017-11-18T08:32:49.484Z,5.40
2017-11-18T08:35:18.010Z,7.70
2017-11-18T08:37:45.752Z,7.70
2017-11-18T08:40:13.561Z,8.10
2017-11-18T08:42:41.318Z,9.50
2017-11-18T08:45:09.085Z,10.70
2017-11-18T08:47:36.951Z,10.40
2017-11-18T08:50:04.814Z,9.80
2017-11-18T08:52:32.567Z,9.20
2017-11-18T08:55:00.417Z,8.60
2017-11-18T08:57:28.189Z,8.10
2017-11-18T08:59:55.948Z,7.80
2017-11-18T09:02:23.753Z,7.40
2017-11-18T09:04:52.273Z,7.20
2017-11-18T09:07:20.048Z,7.20
2017-11-18T09:09:48.676Z,7.10
2017-11-18T09:12:17.218Z,7.00
2017-11-18T09:14:45.769Z,7.00
2017-11-18T09:17:13.595Z,6.90
2017-11-18T09:19:42.141Z,7.40
2017-11-18T09:22:09.930Z,7.40
2017-11-18T09:24:37.757Z,7.50
2017-11-18T09:27:05.537Z,7.60
2017-11-18T09:29:33.319Z,7.50
2017-11-18T09:32:02.026Z,7.50
2017-11-18T09:34:29.801Z,7.50
2017-11-18T09:36:57.573Z,7.50
2017-11-18T09:39:25.417Z,7.50
2017-11-18T09:41:53.236Z,7.50
2017-11-18T09:44:21.010Z,7.50
2017-11-18T09:46:48.841Z,7.50
2017-11-18T09:49:16.601Z,7.60
2017-11-18T09:51:44.368Z,7.70
2017-11-18T09:54:12.173Z,7.70
2017-11-18T09:56:40.805Z,7.70
2017-11-18T09:59:08.563Z,7.70
2017-11-18T10:01:36.387Z,7.70
2017-11-18T10:04:05.324Z,7.70
2017-11-18T10:06:33.104Z,7.70
2017-11-18T10:09:00.920Z,7.60
2017-11-18T10:11:28.700Z,7.60
2017-11-18T10:13:56.465Z,7.50
2017-11-18T10:16:24.267Z,7.40
2017-11-18T10:18:52.022Z,7.50
2017-11-18T10:21:19.785Z,7.50
2017-11-18T10:23:47.594Z,7.50
2017-11-18T10:26:15.339Z,7.70
2017-11-18T10:28:43.879Z,8.20
2017-11-18T10:31:11.696Z,8.10
2017-11-18T10:33:39.460Z,8.30
2017-11-18T10:36:07.218Z,8.20
2017-11-18T10:38:35.041Z,8.10
2017-11-18T10:41:02.801Z,8.00
2017-11-18T10:43:30.548Z,7.70
2017-11-18T10:45:58.414Z,7.60
2017-11-18T10:48:26.166Z,7.20
2017-11-18T10:50:53.919Z,7.20
2017-11-18T10:53:21.754Z,7.20
2017-11-18T10:55:49.525Z,7.40
2017-11-18T10:58:17.284Z,7.60
2017-11-18T11:00:45.096Z,7.90
2017-11-18T11:03:12.851Z,8.10
2017-11-18T11:05:40.620Z,8.20
2017-11-18T11:08:08.449Z,8.20
2017-11-18T11:10:36.221Z,8.10
2017-11-18T11:13:03.976Z,7.80
2017-11-18T11:15:31.787Z,7.50
2017-11-18T11:18:00.325Z,7.20
2017-11-18T11:20:28.091Z,7.20
2017-11-18T11:22:55.925Z,7.20
2017-11-18T11:25:23.680Z,7.10
2017-11-18T11:27:51.451Z,7.10
2017-11-18T11:30:19.536Z,6.90
2017-11-18T11:32:47.373Z,6.90
2017-11-18T11:35:15.144Z,6.70
2017-11-18T11:37:42.958Z,6.70
2017-11-18T11:40:10.733Z,6.60
2017-11-18T11:42:39.250Z,6.50
2017-11-18T11:45:07.068Z,6.50
2017-11-18T11:47:35.369Z,6.60
2017-11-18T11:50:03.149Z,6.60
2017-11-18T11:52:30.964Z,6.70
2017-11-18T11:54:58.751Z,6.80
2017-11-18T11:57:27.292Z,7.30
2017-11-18T11:59:55.215Z,7.30
2017-11-18T12:02:22.986Z,7.50
2017-11-18T12:04:50.752Z,7.70
2017-11-18T12:07:18.641Z,7.80
2017-11-18T12:09:46.547Z,7.80
2017-11-18T12:12:15.097Z,7.70
2017-11-18T12:14:42.926Z,7.70
2017-11-18T12:17:10.704Z,7.80
2017-11-18T12:19:38.478Z,7.80
2017-11-18T12:22:06.319Z,7.90
2017-11-18T12:24:34.102Z,7.90
2017-11-18T12:27:01.869Z,7.70
2017-11-18T12:29:29.721Z,7.60
2017-11-18T12:31:57.899Z,7.70
2017-11-18T12:34:25.653Z,7.60
2017-11-18T12:36:53.470Z,7.60
2017-11-18T12:39:21.229Z,7.60
2017-11-18T12:41:48.997Z,7.50
2017-11-18T12:44:16.812Z,7.40
2017-11-18T12:46:44.590Z,7.30
2017-11-18T12:49:13.124Z,7.30
2017-11-18T12:51:40.942Z,7.30
2017-11-18T12:54:09.485Z,7.10
2017-11-18T12:56:37.234Z,7.10
2017-11-18T12:59:05.317Z,7.10
2017-11-18T13:01:33.102Z,7.00
2017-11-18T13:04:00.865Z,7.00
2017-11-18T13:06:28.700Z,7.00
2017-11-18T13:08:56.485Z,7.10
2017-11-18T13:11:24.237Z,7.00
2017-11-18T13:13:52.061Z,6.80
2017-11-18T13:16:19.816Z,6.80
2017-11-18T13:18:47.572Z,6.80
2017-11-18T13:21:15.389Z,6.60
2017-11-18T13:23:43.145Z,6.70
2017-11-18T13:26:10.918Z,6.60
2017-11-18T13:28:38.754Z,6.50
2017-11-18T13:31:06.508Z,6.50
2017-11-18T13:33:34.314Z,6.50
2017-11-18T13:36:02.132Z,6.50
2017-11-18T13:38:29.899Z,6.50
2017-11-18T13:40:57.657Z,6.50
2017-11-18T13:43:25.484Z,6.40
2017-11-18T13:45:54.054Z,6.40
2017-11-18T13:48:22.585Z,6.40
2017-11-18T13:50:50.397Z,6.40
2017-11-18T13:53:18.922Z,6.40
2017-11-18T13:55:46.679Z,6.40
2017-11-18T13:58:14.500Z,6.40
2017-11-18T14:00:43.037Z,6.30
2017-11-18T14:03:10.799Z,6.30
2017-11-18T14:05:38.623Z,6.20
2017-11-18T14:08:06.411Z,6.20
2017-11-18T14:10:34.166Z,6.10
2017-11-18T14:13:01.998Z,6.10
2017-11-18T14:15:29.764Z,6.10
2017-11-18T14:17:58.291Z,6.00
2017-11-18T14:20:26.118Z,6.00
2017-11-18T14:22:53.885Z,6.00
2017-11-18T14:25:21.644Z,6.00
2017-11-18T14:27:49.496Z,5.90
2017-11-18T14:30:17.269Z,5.80
2017-11-18T14:32:45.033Z,5.90
2017-11-18T14:35:13.050Z,5.90
2017-11-18T14:37:40.827Z,5.80
2017-11-18T14:40:08.646Z,5.80
2017-11-18T14:42:36.490Z,5.70
2017-11-18T14:45:04.258Z,5.70
2017-11-18T14:47:32.017Z,5.70
2017-11-18T14:49:59.871Z,5.70
2017-11-18T14:52:27.621Z,5.60
2017-11-18T14:54:56.158Z,5.50
2017-11-18T14:57:24.771Z,5.40
2017-11-18T14:59:53.327Z,5.50
2017-11-18T15:02:21.107Z,5.40
2017-11-18T15:04:48.950Z,5.50
2017-11-18T15:07:16.754Z,5.50
2017-11-18T15:09:45.308Z,5.50
2017-11-18T15:12:13.160Z,5.50
2017-11-18T15:14:42.551Z,5.40
2017-11-18T15:17:16.121Z,5.40
2017-11-18T15:19:49.522Z,5.40
2017-11-18T15:22:35.095Z,5.40
2017-11-18T15:25:08.416Z,5.40
2017-11-18T15:27:42.010Z,5.40
2017-11-18T15:30:25.477Z,5.30
2017-11-18T15:32:59.913Z,5.40
2017-11-18T15:35:30.033Z,5.30
2017-11-18T15:38:13.428Z,5.30
2017-11-18T15:40:42.248Z,5.20
2017-11-18T15:43:10.847Z,5.10
2017-11-18T15:45:48.724Z,5.10
2017-11-18T16:02:06.314Z,5.20
2017-11-18T16:04:37.389Z,5.20
2017-11-18T16:07:23.832Z,5.20
2017-11-18T16:09:51.750Z,5.20
2017-11-18T16:12:19.629Z,5.20
2017-11-18T16:14:47.464Z,5.10
2017-11-18T16:17:15.354Z,5.10
2017-11-18T16:19:43.131Z,5.20
2017-11-18T16:22:11.832Z,5.20
2017-11-18T16:24:39.847Z,5.20
2017-11-18T16:27:08.548Z,5.20
2017-11-18T16:29:36.434Z,5.20
2017-11-18T16:32:04.392Z,5.20
2017-11-18T16:34:32.166Z,5.20
2017-11-18T16:37:00.207Z,5.10
2017-11-18T16:39:28.138Z,5.10
2017-11-18T16:41:56.682Z,5.10
2017-11-18T16:44:24.563Z,5.10
2017-11-18T16:46:53.117Z,5.20
2017-11-18T16:49:20.911Z,5.20
2017-11-18T16:51:49.689Z,5.30
2017-11-18T16:54:18.237Z,5.30
2017-11-18T16:56:46.752Z,5.30
2017-11-18T16:59:15.360Z,5.30
2017-11-18T17:01:43.138Z,5.30
2017-11-18T17:04:10.938Z,5.40
2017-11-18T17:06:38.784Z,5.40
2017-11-18T17:09:06.601Z,5.30
2017-11-18T17:11:34.401Z,5.30
2017-11-18T17:14:02.241Z,5.30
2017-11-18T17:16:30.055Z,5.30
2017-11-18T17:18:58.666Z,5.30
2017-11-18T17:21:27.263Z,5.30
2017-11-18T17:23:55.036Z,5.30
2017-11-18T17:26:22.799Z,5.30
2017-11-18T17:28:50.631Z,5.30
2017-11-18T17:31:19.169Z,5.20
2017-11-18T17:33:46.953Z,5.20
2017-11-18T17:36:15.023Z,5.20
2017-11-18T17:38:42.799Z,5.00
2017-11-18T17:41:13.320Z,4.80
2017-11-18T17:43:41.156Z,4.80
2017-11-18T17:46:08.956Z,4.80
2017-11-18T17:48:37.497Z,4.70
2017-11-18T17:51:05.334Z,4.70
2017-11-18T17:53:33.130Z,4.70
2017-11-18T17:56:00.937Z,4.70
2017-11-18T17:58:28.975Z,4.80
2017-11-18T18:00:57.551Z,4.70
2017-11-18T18:03:25.329Z,4.70
2017-11-18T18:05:53.934Z,4.80
2017-11-18T18:08:21.961Z,4.80
2017-11-18T18:10:49.757Z,4.90
2017-11-18T18:13:17.614Z,4.90
2017-11-18T18:15:46.164Z,4.90
2017-11-18T18:18:14.422Z,4.90
2017-11-18T18:20:42.282Z,5.00
2017-11-18T18:23:10.097Z,5.00
2017-11-18T18:25:37.956Z,5.00
2017-11-18T18:28:05.846Z,5.00
2017-11-18T18:30:33.626Z,5.00
2017-11-18T18:33:01.401Z,4.90
2017-11-18T18:35:29.733Z,4.90
2017-11-18T18:37:58.024Z,5.00
2017-11-18T18:40:26.761Z,5.00
2017-11-18T18:42:55.345Z,5.10
2017-11-18T18:45:23.887Z,5.10
2017-11-18T18:47:51.672Z,5.00
2017-11-18T18:50:19.620Z,5.10
2017-11-18T18:52:47.420Z,5.10
2017-11-18T18:55:16.137Z,5.00
2017-11-18T18:57:43.964Z,5.00
2017-11-18T19:00:12.513Z,5.10
2017-11-18T19:02:40.287Z,5.00
2017-11-18T19:05:08.481Z,5.00
2017-11-18T19:07:37.010Z,5.10
2017-11-18T19:10:04.877Z,5.10
2017-11-18T19:12:32.828Z,5.10
2017-11-18T19:15:00.758Z,5.10
2017-11-18T19:17:29.423Z,5.10
2017-11-18T19:19:57.292Z,5.10
2017-11-18T19:22:25.246Z,5.00
2017-11-18T19:24:53.087Z,5.10
2017-11-18T19:27:21.242Z,5.10
2017-11-18T19:29:49.057Z,5.10
2017-11-18T19:32:17.835Z,5.20
2017-11-18T19:34:45.711Z,5.20
2017-11-18T19:37:14.292Z,5.30
2017-11-18T19:39:42.852Z,5.20
2017-11-18T19:42:11.166Z,5.20
2017-11-18T19:44:39.468Z,5.00
2017-11-18T19:47:07.294Z,5.00
2017-11-18T19:49:36.701Z,5.00
2017-11-18T19:52:05.353Z,5.00
2017-11-18T19:54:33.269Z,5.00
2017-11-18T19:57:01.113Z,5.00
2017-11-18T19:59:29.654Z,5.10
2017-11-18T20:01:57.518Z,5.10
2017-11-18T20:04:25.389Z,5.10
2017-11-18T20:06:53.621Z,5.20
2017-11-18T20:09:21.689Z,5.10
2017-11-18T20:11:49.535Z,5.10
2017-11-18T20:14:17.309Z,5.00
2017-11-18T20:16:45.078Z,5.00
2017-11-18T20:19:12.893Z,5.00
2017-11-18T20:21:41.441Z,5.10
2017-11-18T20:24:09.222Z,5.00
2017-11-18T20:26:37.051Z,5.00
2017-11-18T20:29:04.820Z,5.00
2017-11-18T20:31:32.600Z,5.00
2017-11-18T20:34:00.426Z,4.90
2017-11-18T20:36:28.180Z,4.90
2017-11-18T20:38:55.961Z,4.80
2017-11-18T20:41:23.784Z,4.70
2017-11-18T20:43:52.332Z,4.60
2017-11-18T20:46:20.093Z,4.60
2017-11-18T20:48:47.910Z,4.60
2017-11-18T20:51:15.673Z,4.50
2017-11-18T20:53:43.449Z,4.50
2017-11-18T20:56:11.270Z,4.40
2017-11-18T20:58:39.806Z,4.40
2017-11-18T21:01:07.617Z,4.40
2017-11-18T21:03:36.221Z,4.40
2017-11-18T21:06:05.789Z,4.30
2017-11-18T21:08:34.348Z,4.40
2017-11-18T21:11:02.198Z,4.30
2017-11-18T21:13:29.986Z,4.40
2017-11-18T21:15:57.776Z,4.40
2017-11-18T21:18:26.384Z,4.40
2017-11-18T21:20:54.148Z,4.40
2017-11-18T21:23:21.908Z,4.50
2017-11-18T21:25:49.724Z,4.40
2017-11-18T21:28:17.492Z,4.50
2017-11-18T21:30:46.083Z,4.50
2017-11-18T21:33:14.681Z,4.50
2017-11-18T21:35:42.432Z,4.50
2017-11-18T21:38:10.953Z,4.50
2017-11-18T21:40:38.818Z,4.50
2017-11-18T21:43:06.580Z,4.50
2017-11-18T21:45:34.358Z,4.50
2017-11-18T21:48:02.187Z,4.50
2017-11-18T21:50:29.957Z,4.50
2017-11-18T21:52:57.722Z,4.50
2017-11-18T21:55:25.560Z,4.50
2017-11-18T21:57:53.336Z,4.50
2017-11-18T22:00:21.145Z,4.60
2017-11-18T22:02:48.987Z,4.50
2017-11-18T22:05:16.748Z,4.50
2017-11-18T22:07:44.575Z,4.50
2017-11-18T22:10:12.401Z,4.40
2017-11-18T22:12:40.177Z,4.40
2017-11-18T22:15:08.702Z,4.40
2017-11-18T22:17:36.521Z,4.40
2017-11-18T22:20:05.061Z,4.40
2017-11-18T22:22:32.833Z,4.40
2017-11-18T22:25:00.677Z,4.40
2017-11-18T22:27:28.490Z,4.30
2017-11-18T22:29:57.111Z,4.40
2017-11-18T22:32:24.961Z,4.40
2017-11-18T22:34:52.725Z,4.40
2017-11-18T22:37:20.530Z,4.40
2017-11-18T22:39:48.348Z,4.40
2017-11-18T22:42:16.141Z,4.40
2017-11-18T22:44:43.899Z,4.40
2017-11-18T22:47:11.713Z,4.40
2017-11-18T22:49:40.243Z,4.30
2017-11-18T22:52:08.020Z,4.30
2017-11-18T22:54:35.831Z,4.30
2017-11-18T22:57:03.594Z,4.40
2017-11-18T22:59:31.357Z,4.40
2017-11-18T23:01:59.169Z,4.50
2017-11-18T23:04:26.946Z,4.40
2017-11-18T23:06:54.702Z,4.40
2017-11-18T23:09:22.526Z,4.40
2017-11-18T23:11:50.285Z,4.40
2017-11-18T23:14:18.036Z,4.40
2017-11-18T23:16:45.856Z,4.30
2017-11-18T23:19:13.609Z,4.40
2017-11-18T23:21:41.357Z,4.50
2017-11-18T23:24:09.165Z,4.50
2017-11-18T23:26:36.922Z,4.50
2017-11-18T23:29:05.449Z,4.60
2017-11-18T23:31:33.257Z,4.60
2017-11-18T23:34:01.781Z,4.60
2017-11-18T23:36:29.532Z,4.60
2017-11-18T23:38:57.372Z,4.60
2017-11-18T23:41:25.896Z,4.60
2017-11-18T23:43:53.663Z,4.60
2017-11-18T23:46:21.649Z,4.60
2017-11-18T23:48:49.392Z,4.70
2017-11-18T23:51:17.158Z,4.70
2017-11-18T23:53:44.984Z,4.70
2017-11-18T23:56:12.748Z,4.70
2017-11-18T23:58:40.523Z,4.70
